createdAt,value
2018-04-12T00:00:34.596Z,31.80
2018-04-12T00:01:34.716Z,31.80
2018-04-12T00:02:34.708Z,31.80
2018-04-12T00:03:34.733Z,28.70
2018-04-12T00:04:34.666Z,28.70
2018-04-12T00:05:34.731Z,28.70
2018-04-12T00:06:34.730Z,28.70
2018-04-12T00:07:34.659Z,28.70
2018-04-12T00:08:34.732Z,28.70
2018-04-12T00:09:34.660Z,28.70
2018-04-12T00:10:34.741Z,28.70
2018-04-12T00:11:34.700Z,28.70
2018-04-12T00:12:34.735Z,28.70
2018-04-12T00:13:34.744Z,32.80
2018-04-12T00:14:34.668Z,32.80
2018-04-12T00:15:34.701Z,32.80
2018-04-12T00:16:34.752Z,32.80
2018-04-12T00:17:34.696Z,32.80
2018-04-12T00:18:34.668Z,32.80
2018-04-12T00:19:34.639Z,32.80
2018-04-12T00:20:34.706Z,32.80
2018-04-12T00:21:34.735Z,32.80
2018-04-12T00:22:34.734Z,32.80
2018-04-12T00:23:34.640Z,32.20
2018-04-12T00:24:34.704Z,32.20
2018-04-12T00:25:34.775Z,32.20
2018-04-12T00:26:34.740Z,32.20
2018-04-12T00:27:34.744Z,32.20
2018-04-12T00:28:34.745Z,32.20
2018-04-12T00:29:34.664Z,32.20
2018-04-12T00:30:34.645Z,32.20
2018-04-12T00:31:34.712Z,32.20
2018-04-12T00:32:34.643Z,32.20
2018-04-12T00:33:34.751Z,35.40
2018-04-12T00:34:34.674Z,35.40
2018-04-12T00:35:34.764Z,35.40
2018-04-12T00:36:34.689Z,35.40
2018-04-12T00:37:34.750Z,35.40
2018-04-12T00:38:34.712Z,35.40
2018-04-12T00:39:34.752Z,35.40
2018-04-12T00:40:34.755Z,35.40
2018-04-12T00:41:34.685Z,35.40
2018-04-12T00:42:34.686Z,35.40
2018-04-12T00:43:34.703Z,32.60
2018-04-12T00:44:34.709Z,32.60
2018-04-12T00:45:34.757Z,32.60
2018-04-12T00:46:34.686Z,32.60
2018-04-12T00:47:34.756Z,32.60
2018-04-12T00:48:34.690Z,32.60
2018-04-12T00:49:34.685Z,32.60
2018-04-12T00:50:34.759Z,32.60
2018-04-12T00:51:34.653Z,32.60
2018-04-12T00:52:34.762Z,32.60
2018-04-12T00:53:34.817Z,28.40
2018-04-12T00:54:34.780Z,28.40
2018-04-12T00:55:34.735Z,28.40
2018-04-12T00:56:34.789Z,28.40
2018-04-12T00:57:34.695Z,28.40
2018-04-12T00:58:34.755Z,28.40
2018-04-12T00:59:34.820Z,28.40
2018-04-12T01:00:34.682Z,28.40
2018-04-12T01:01:34.829Z,28.40
2018-04-12T01:02:34.766Z,28.40
2018-04-12T01:03:34.727Z,32.80
2018-04-12T01:04:34.665Z,32.80
2018-04-12T01:05:34.686Z,32.80
2018-04-12T01:06:34.798Z,32.80
2018-04-12T01:07:34.788Z,32.80
2018-04-12T01:08:34.790Z,32.80
2018-04-12T01:09:34.800Z,32.80
2018-04-12T01:10:34.779Z,32.80
2018-04-12T01:11:34.704Z,32.80
2018-04-12T01:12:34.671Z,32.80
2018-04-12T01:13:34.855Z,30.30
2018-04-12T01:14:34.835Z,30.30
2018-04-12T01:15:34.799Z,30.30
2018-04-12T01:16:34.780Z,30.30
2018-04-12T01:17:34.678Z,30.30
2018-04-12T01:18:34.709Z,30.30
2018-04-12T01:19:34.881Z,30.30
2018-04-12T01:20:34.796Z,30.30
2018-04-12T01:21:34.837Z,30.30
2018-04-12T01:22:34.680Z,30.30
2018-04-12T01:23:34.779Z,35.30
2018-04-12T01:24:34.713Z,35.30
2018-04-12T01:25:34.711Z,35.30
2018-04-12T01:26:34.782Z,35.30
2018-04-12T01:27:34.783Z,35.30
2018-04-12T01:28:34.712Z,35.30
2018-04-12T01:29:34.712Z,35.30
2018-04-12T01:30:34.784Z,35.30
2018-04-12T01:31:34.795Z,35.30
2018-04-12T01:32:34.716Z,35.30
2018-04-12T01:33:34.792Z,31.40
2018-04-12T01:34:34.786Z,31.40
2018-04-12T01:35:34.790Z,31.40
2018-04-12T01:36:34.718Z,31.40
2018-04-12T01:37:34.789Z,31.40
2018-04-12T01:38:34.717Z,31.40
2018-04-12T01:39:34.716Z,31.40
2018-04-12T01:40:34.717Z,31.40
2018-04-12T01:41:34.719Z,31.40
2018-04-12T01:42:34.718Z,31.40
2018-04-12T01:43:34.891Z,33.10
2018-04-12T01:44:34.761Z,33.10
2018-04-12T01:45:34.760Z,33.10
2018-04-12T01:46:34.848Z,33.10
2018-04-12T01:47:34.818Z,33.10
2018-04-12T01:48:34.760Z,33.10
2018-04-12T01:49:34.797Z,33.10
2018-04-12T01:50:34.872Z,33.10
2018-04-12T01:51:34.817Z,33.10
2018-04-12T01:52:34.792Z,33.10
2018-04-12T01:53:34.756Z,36.30
2018-04-12T01:54:34.793Z,36.30
2018-04-12T01:55:34.764Z,36.30
2018-04-12T01:56:34.735Z,36.30
2018-04-12T01:57:34.712Z,36.30
2018-04-12T01:58:34.835Z,36.30
2018-04-12T01:59:34.781Z,36.30
2018-04-12T02:00:34.704Z,36.30
2018-04-12T02:01:34.774Z,36.30
2018-04-12T02:02:34.781Z,36.30
2018-04-12T02:03:34.732Z,38.70
2018-04-12T02:04:34.734Z,38.70
2018-04-12T02:05:34.805Z,38.70
2018-04-12T02:06:34.808Z,38.70
2018-04-12T02:07:34.746Z,38.70
2018-04-12T02:08:34.806Z,38.70
2018-04-12T02:09:34.738Z,38.70
2018-04-12T02:10:34.809Z,38.70
2018-04-12T02:11:34.809Z,38.70
2018-04-12T02:12:34.808Z,38.70
2018-04-12T02:13:34.827Z,36.20
2018-04-12T02:14:34.835Z,36.20
2018-04-12T02:15:34.869Z,36.20
2018-04-12T02:16:34.712Z,36.20
2018-04-12T02:17:34.730Z,36.20
2018-04-12T02:18:34.809Z,36.20
2018-04-12T02:19:34.785Z,36.20
2018-04-12T02:20:34.745Z,36.20
2018-04-12T02:21:34.872Z,36.20
2018-04-12T02:22:34.752Z,36.20
2018-04-12T02:23:34.737Z,40.30
2018-04-12T02:24:34.739Z,40.30
2018-04-12T02:25:34.699Z,40.30
2018-04-12T02:26:34.739Z,40.30
2018-04-12T02:27:34.813Z,40.30
2018-04-12T02:28:34.742Z,40.30
2018-04-12T02:29:34.739Z,40.30
2018-04-12T02:30:34.812Z,40.30
2018-04-12T02:31:34.737Z,40.30
2018-04-12T02:32:34.744Z,40.30
2018-04-12T02:33:34.787Z,41.40
2018-04-12T02:34:34.883Z,41.40
2018-04-12T02:35:34.790Z,41.40
2018-04-12T02:36:34.836Z,41.40
2018-04-12T02:37:34.740Z,41.40
2018-04-12T02:38:34.790Z,41.40
2018-04-12T02:39:34.859Z,41.40
2018-04-12T02:40:34.748Z,41.40
2018-04-12T02:41:34.729Z,41.40
2018-04-12T02:42:34.846Z,41.40
2018-04-12T02:43:34.792Z,46.30
2018-04-12T02:44:34.866Z,46.30
2018-04-12T02:45:34.792Z,46.30
2018-04-12T02:46:34.793Z,46.30
2018-04-12T02:47:34.752Z,46.30
2018-04-12T02:48:34.789Z,46.30
2018-04-12T02:49:34.860Z,46.30
2018-04-12T02:50:34.911Z,46.30
2018-04-12T02:51:34.838Z,46.30
2018-04-12T02:52:34.767Z,46.30
2018-04-12T02:53:34.798Z,42.30
2018-04-12T02:54:34.869Z,42.30
2018-04-12T02:55:34.808Z,42.30
2018-04-12T02:56:34.753Z,42.30
2018-04-12T02:57:34.838Z,42.30
2018-04-12T02:58:34.796Z,42.30
2018-04-12T02:59:34.863Z,42.30
2018-04-12T03:00:34.861Z,42.30
2018-04-12T03:01:34.757Z,42.30
2018-04-12T03:02:34.805Z,42.30
2018-04-12T03:03:34.842Z,43.99
2018-04-12T03:04:34.771Z,43.99
2018-04-12T03:05:34.769Z,43.99
2018-04-12T03:06:34.773Z,43.99
2018-04-12T03:07:34.791Z,43.99
2018-04-12T03:08:34.848Z,43.99
2018-04-12T03:09:34.839Z,43.99
2018-04-12T03:10:34.857Z,43.99
2018-04-12T03:11:34.775Z,43.99
2018-04-12T03:12:34.855Z,43.99
2018-04-12T03:13:34.811Z,42.20
2018-04-12T03:14:34.845Z,42.20
2018-04-12T03:15:34.743Z,42.20
2018-04-12T03:16:34.853Z,42.20
2018-04-12T03:17:34.783Z,42.20
2018-04-12T03:18:34.779Z,42.20
2018-04-12T03:19:34.855Z,42.20
2018-04-12T03:20:34.856Z,42.20
2018-04-12T03:21:34.780Z,42.20
2018-04-12T03:22:34.861Z,42.20
2018-04-12T03:23:34.874Z,43.30
2018-04-12T03:24:34.786Z,43.30
2018-04-12T03:25:34.855Z,43.30
2018-04-12T03:26:34.860Z,43.30
2018-04-12T03:27:34.860Z,43.30
2018-04-12T03:28:34.829Z,43.30
2018-04-12T03:29:34.809Z,43.30
2018-04-12T03:30:34.861Z,43.30
2018-04-12T03:31:34.788Z,43.30
2018-04-12T03:32:34.787Z,43.30
2018-04-12T03:33:34.827Z,48.30
2018-04-12T03:34:34.860Z,48.30
2018-04-12T03:35:34.857Z,48.30
2018-04-12T03:36:34.881Z,48.30
2018-04-12T03:37:34.887Z,48.30
2018-04-12T03:38:34.823Z,48.30
2018-04-12T03:39:34.764Z,48.30
2018-04-12T03:40:34.882Z,48.30
2018-04-12T03:41:34.886Z,48.30
2018-04-12T03:42:34.898Z,48.30
2018-04-12T03:43:34.857Z,50.00
2018-04-12T03:44:34.786Z,50.00
2018-04-12T03:45:34.857Z,50.00
2018-04-12T03:46:34.792Z,50.00
2018-04-12T03:47:34.859Z,50.00
2018-04-12T03:48:34.802Z,50.00
2018-04-12T03:49:34.902Z,50.00
2018-04-12T03:50:34.833Z,50.00
2018-04-12T03:51:34.861Z,50.00
2018-04-12T03:52:34.789Z,50.00
2018-04-12T03:53:34.805Z,45.70
2018-04-12T03:54:34.834Z,45.70
2018-04-12T03:55:34.838Z,45.70
2018-04-12T03:56:34.794Z,45.70
2018-04-12T03:57:34.873Z,45.70
2018-04-12T03:58:34.809Z,45.70
2018-04-12T03:59:34.841Z,45.70
2018-04-12T04:00:34.911Z,45.70
2018-04-12T04:01:34.778Z,45.70
2018-04-12T04:02:34.843Z,45.70
2018-04-12T04:03:34.826Z,46.00
2018-04-12T04:04:34.739Z,46.00
2018-04-12T04:05:34.874Z,46.00
2018-04-12T04:06:34.848Z,46.00
2018-04-12T04:07:34.798Z,46.00
2018-04-12T04:08:34.742Z,46.00
2018-04-12T04:09:34.847Z,46.00
2018-04-12T04:10:34.800Z,46.00
2018-04-12T04:11:34.745Z,46.00
2018-04-12T04:12:34.801Z,46.00
2018-04-12T04:13:34.782Z,52.70
2018-04-12T04:14:34.894Z,52.70
2018-04-12T04:15:34.806Z,52.70
2018-04-12T04:16:34.845Z,52.70
2018-04-12T04:17:34.855Z,52.70
2018-04-12T04:18:34.884Z,52.70
2018-04-12T04:19:34.909Z,52.70
2018-04-12T04:20:34.906Z,52.70
2018-04-12T04:21:34.942Z,52.70
2018-04-12T04:22:34.925Z,52.70
2018-04-12T04:23:34.881Z,55.50
2018-04-12T04:24:34.820Z,55.50
2018-04-12T04:25:34.883Z,55.50
2018-04-12T04:26:34.809Z,55.50
2018-04-12T04:27:34.882Z,55.50
2018-04-12T04:28:34.810Z,55.50
2018-04-12T04:29:34.886Z,55.50
2018-04-12T04:30:34.813Z,55.50
2018-04-12T04:31:34.887Z,55.50
2018-04-12T04:32:34.818Z,55.50
2018-04-12T04:33:34.906Z,50.70
2018-04-12T04:34:34.939Z,50.70
2018-04-12T04:35:34.953Z,50.70
2018-04-12T04:36:34.859Z,50.70
2018-04-12T04:37:34.877Z,50.70
2018-04-12T04:38:34.902Z,50.70
2018-04-12T04:39:34.899Z,50.70
2018-04-12T04:40:34.963Z,50.70
2018-04-12T04:41:34.921Z,50.70
2018-04-12T04:42:34.870Z,50.70
2018-04-12T04:43:34.873Z,45.60
2018-04-12T04:44:34.840Z,45.60
2018-04-12T04:45:34.937Z,45.60
2018-04-12T04:46:34.865Z,45.60
2018-04-12T04:47:34.885Z,45.60
2018-04-12T04:48:34.843Z,45.60
2018-04-12T04:49:34.906Z,45.60
2018-04-12T04:50:34.826Z,45.60
2018-04-12T04:51:34.822Z,45.60
2018-04-12T04:52:34.919Z,45.60
2018-04-12T04:53:34.896Z,48.00
2018-04-12T04:54:34.850Z,48.00
2018-04-12T04:55:34.806Z,48.00
2018-04-12T04:56:34.777Z,48.00
2018-04-12T04:57:34.810Z,48.00
2018-04-12T04:58:34.896Z,48.00
2018-04-12T04:59:34.826Z,48.00
2018-04-12T05:00:34.813Z,48.00
2018-04-12T05:01:34.891Z,48.00
2018-04-12T05:02:34.901Z,48.00
2018-04-12T05:03:34.912Z,50.70
2018-04-12T05:04:34.867Z,50.70
2018-04-12T05:05:34.845Z,50.70
2018-04-12T05:06:34.919Z,50.70
2018-04-12T05:07:34.917Z,50.70
2018-04-12T05:08:34.845Z,50.70
2018-04-12T05:09:34.847Z,50.70
2018-04-12T05:10:34.802Z,50.70
2018-04-12T05:11:34.922Z,50.70
2018-04-12T05:12:34.848Z,50.70
2018-04-12T05:13:34.926Z,62.40
2018-04-12T05:14:34.849Z,62.40
2018-04-12T05:15:34.908Z,62.40
2018-04-12T05:16:34.927Z,62.40
2018-04-12T05:17:34.852Z,62.40
2018-04-12T05:18:34.852Z,62.40
2018-04-12T05:19:34.930Z,62.40
2018-04-12T05:20:34.856Z,62.40
2018-04-12T05:21:34.932Z,62.40
2018-04-12T05:22:34.932Z,62.40
2018-04-12T05:23:34.860Z,55.90
2018-04-12T05:24:34.892Z,55.90
2018-04-12T05:25:34.896Z,55.90
2018-04-12T05:26:34.930Z,55.90
2018-04-12T05:27:34.858Z,55.90
2018-04-12T05:28:34.932Z,55.90
2018-04-12T05:29:34.889Z,55.90
2018-04-12T05:30:34.934Z,55.90
2018-04-12T05:31:34.859Z,55.90
2018-04-12T05:32:34.950Z,55.90
2018-04-12T05:33:34.859Z,55.90
2018-04-12T05:34:34.935Z,61.40
2018-04-12T05:35:34.892Z,61.40
2018-04-12T05:36:34.896Z,61.40
2018-04-12T05:37:34.959Z,61.40
2018-04-12T05:38:34.916Z,61.40
2018-04-12T05:39:34.979Z,61.40
2018-04-12T05:40:34.909Z,61.40
2018-04-12T05:41:34.843Z,61.40
2018-04-12T05:42:34.844Z,61.40
2018-04-12T05:43:34.974Z,61.40
2018-04-12T05:44:34.968Z,54.50
2018-04-12T05:45:34.903Z,54.50
2018-04-12T05:46:34.959Z,54.50
2018-04-12T05:47:34.905Z,54.50
2018-04-12T05:48:34.900Z,54.50
2018-04-12T05:49:34.980Z,54.50
2018-04-12T05:50:34.894Z,54.50
2018-04-12T05:51:34.980Z,54.50
2018-04-12T05:52:34.914Z,54.50
2018-04-12T05:53:34.970Z,54.50
2018-04-12T05:54:34.899Z,51.20
2018-04-12T05:55:34.867Z,51.20
2018-04-12T05:56:34.989Z,51.20
2018-04-12T05:57:34.868Z,51.20
2018-04-12T05:58:34.913Z,51.20
2018-04-12T05:59:34.903Z,51.20
2018-04-12T06:00:34.903Z,51.20
2018-04-12T06:01:34.867Z,51.20
2018-04-12T06:02:35.046Z,51.20
2018-04-12T06:03:34.960Z,51.20
2018-04-12T06:04:34.880Z,53.60
2018-04-12T06:05:34.890Z,53.60
2018-04-12T06:06:34.951Z,53.60
2018-04-12T06:07:34.956Z,53.60
2018-04-12T06:08:34.890Z,53.60
2018-04-12T06:09:34.958Z,53.60
2018-04-12T06:10:34.884Z,53.60
2018-04-12T06:11:34.959Z,53.60
2018-04-12T06:12:34.887Z,53.60
2018-04-12T06:13:34.892Z,53.60
2018-04-12T06:14:34.955Z,53.60
2018-04-12T06:15:34.985Z,53.60
2018-04-12T06:16:34.878Z,53.60
2018-04-12T06:17:34.958Z,53.60
2018-04-12T06:18:34.900Z,53.60
2018-04-12T06:19:34.989Z,53.60
2018-04-12T06:20:34.962Z,53.60
2018-04-12T06:21:35.001Z,53.60
2018-04-12T06:22:34.937Z,53.60
2018-04-12T06:23:34.928Z,53.60
2018-04-12T06:24:34.880Z,51.20
2018-04-12T06:25:34.978Z,51.20
2018-04-12T06:26:34.855Z,51.20
2018-04-12T06:27:34.883Z,51.20
2018-04-12T06:28:34.963Z,51.20
2018-04-12T06:29:34.842Z,51.20
2018-04-12T06:30:34.885Z,51.20
2018-04-12T06:31:34.855Z,51.20
2018-04-12T06:32:34.879Z,51.20
2018-04-12T06:33:34.957Z,51.20
2018-04-12T06:34:34.896Z,50.30
2018-04-12T06:35:34.964Z,50.30
2018-04-12T06:36:34.875Z,50.30
2018-04-12T06:37:34.993Z,50.30
2018-04-12T06:38:34.894Z,50.30
2018-04-12T06:39:34.877Z,50.30
2018-04-12T06:40:34.959Z,50.30
2018-04-12T06:41:34.860Z,50.30
2018-04-12T06:42:34.848Z,50.30
2018-04-12T06:43:34.892Z,50.30
2018-04-12T06:44:34.903Z,51.00
2018-04-12T06:45:34.935Z,51.00
2018-04-12T06:46:34.898Z,51.00
2018-04-12T06:47:34.899Z,51.00
2018-04-12T06:48:34.865Z,51.00
2018-04-12T06:49:34.921Z,51.00
2018-04-12T06:50:34.847Z,51.00
2018-04-12T06:51:34.896Z,51.00
2018-04-12T06:52:34.932Z,51.00
2018-04-12T06:53:34.971Z,51.00
2018-04-12T06:54:34.883Z,49.50
2018-04-12T06:55:34.947Z,49.50
2018-04-12T06:56:34.980Z,49.50
2018-04-12T06:57:34.946Z,49.50
2018-04-12T06:58:34.919Z,49.50
2018-04-12T06:59:34.937Z,49.50
2018-04-12T07:00:35.010Z,49.50
2018-04-12T07:01:34.902Z,49.50
2018-04-12T07:02:34.984Z,49.50
2018-04-12T07:03:35.040Z,49.50
2018-04-12T07:04:34.977Z,52.20
2018-04-12T07:05:34.864Z,52.20
2018-04-12T07:06:34.908Z,52.20
2018-04-12T07:07:34.940Z,52.20
2018-04-12T07:08:34.944Z,52.20
2018-04-12T07:09:34.900Z,52.20
2018-04-12T07:10:34.987Z,52.20
2018-04-12T07:11:34.981Z,52.20
2018-04-12T07:12:34.982Z,52.20
2018-04-12T07:13:34.883Z,52.20
2018-04-12T07:14:34.921Z,51.90
2018-04-12T07:15:34.999Z,51.90
2018-04-12T07:16:34.928Z,51.90
2018-04-12T07:17:34.996Z,51.90
2018-04-12T07:18:34.926Z,51.90
2018-04-12T07:19:34.924Z,51.90
2018-04-12T07:20:34.929Z,51.90
2018-04-12T07:21:35.002Z,51.90
2018-04-12T07:22:34.931Z,51.90
2018-04-12T07:23:34.928Z,51.90
2018-04-12T07:24:35.017Z,46.70
2018-04-12T07:25:34.972Z,46.70
2018-04-12T07:26:34.978Z,46.70
2018-04-12T07:27:34.905Z,46.70
2018-04-12T07:28:35.022Z,46.70
2018-04-12T07:29:35.090Z,46.70
2018-04-12T07:30:35.030Z,46.70
2018-04-12T07:31:34.963Z,46.70
2018-04-12T07:32:35.007Z,46.70
2018-04-12T07:33:34.941Z,46.70
2018-04-12T07:34:35.003Z,43.99
2018-04-12T07:35:34.939Z,43.99
2018-04-12T07:36:35.010Z,43.99
2018-04-12T07:37:35.006Z,43.99
2018-04-12T07:38:35.039Z,43.99
2018-04-12T07:39:34.966Z,43.99
2018-04-12T07:40:35.014Z,43.99
2018-04-12T07:41:34.978Z,43.99
2018-04-12T07:42:34.970Z,43.99
2018-04-12T07:43:35.049Z,43.99
2018-04-12T07:44:34.930Z,38.00
2018-04-12T07:45:34.926Z,38.00
2018-04-12T07:46:34.943Z,38.00
2018-04-12T07:47:34.928Z,38.00
2018-04-12T07:48:35.002Z,38.00
2018-04-12T07:49:35.001Z,38.00
2018-04-12T07:50:34.934Z,38.00
2018-04-12T07:51:34.921Z,38.00
2018-04-12T07:52:35.008Z,38.00
2018-04-12T07:53:35.008Z,38.00
2018-04-12T07:54:34.941Z,40.50
2018-04-12T07:55:35.015Z,40.50
2018-04-12T07:56:34.937Z,40.50
2018-04-12T07:57:34.934Z,40.50
2018-04-12T07:58:35.018Z,40.50
2018-04-12T07:59:35.017Z,40.50
2018-04-12T08:00:34.958Z,40.50
2018-04-12T08:01:34.979Z,40.50
2018-04-12T08:02:34.942Z,40.50
2018-04-12T08:03:35.020Z,40.50
2018-04-12T08:04:34.991Z,43.50
2018-04-12T08:05:35.052Z,43.50
2018-04-12T08:06:35.026Z,43.50
2018-04-12T08:07:34.928Z,43.50
2018-04-12T08:08:34.945Z,43.50
2018-04-12T08:09:35.053Z,43.50
2018-04-12T08:10:35.047Z,43.50
2018-04-12T08:11:34.964Z,43.50
2018-04-12T08:12:34.991Z,43.50
2018-04-12T08:13:35.085Z,43.50
2018-04-12T08:14:34.845Z,40.00
2018-04-12T08:15:34.874Z,40.00
2018-04-12T08:16:34.910Z,40.00
2018-04-12T08:17:34.971Z,40.00
2018-04-12T08:18:34.953Z,40.00
2018-04-12T08:19:34.939Z,40.00
2018-04-12T08:20:34.898Z,40.00
2018-04-12T08:21:34.905Z,40.00
2018-04-12T08:22:34.969Z,40.00
2018-04-12T08:23:34.979Z,40.00
2018-04-12T08:24:35.038Z,35.20
2018-04-12T08:25:35.004Z,35.20
2018-04-12T08:26:35.068Z,35.20
2018-04-12T08:27:35.069Z,35.20
2018-04-12T08:28:35.035Z,35.20
2018-04-12T08:29:35.066Z,35.20
2018-04-12T08:30:35.021Z,35.20
2018-04-12T08:31:35.014Z,35.20
2018-04-12T08:32:34.948Z,35.20
2018-04-12T08:33:34.946Z,35.20
2018-04-12T08:34:35.055Z,32.60
2018-04-12T08:35:34.917Z,32.60
2018-04-12T08:36:35.001Z,32.60
2018-04-12T08:37:35.038Z,32.60
2018-04-12T08:38:34.933Z,32.60
2018-04-12T08:39:35.039Z,32.60
2018-04-12T08:40:34.917Z,32.60
2018-04-12T08:41:35.041Z,32.60
2018-04-12T08:42:34.955Z,32.60
2018-04-12T08:43:34.926Z,32.60
2018-04-12T08:44:34.971Z,31.10
2018-04-12T08:45:35.047Z,31.10
2018-04-12T08:46:35.048Z,31.10
2018-04-12T08:47:35.058Z,31.10
2018-04-12T08:48:34.974Z,31.10
2018-04-12T08:49:35.025Z,31.10
2018-04-12T08:50:35.082Z,31.10
2018-04-12T08:51:34.996Z,31.10
2018-04-12T08:52:35.094Z,31.10
2018-04-12T08:53:35.085Z,31.10
2018-04-12T08:54:35.054Z,30.99
2018-04-12T08:55:35.030Z,30.99
2018-04-12T08:56:34.976Z,30.99
2018-04-12T08:57:35.091Z,30.99
2018-04-12T08:58:35.079Z,30.99
2018-04-12T08:59:35.036Z,30.99
2018-04-12T09:00:35.100Z,30.99
2018-04-12T09:01:35.049Z,30.99
2018-04-12T09:02:35.095Z,30.99
2018-04-12T09:03:35.080Z,30.99
2018-04-12T09:04:35.091Z,22.99
2018-04-12T09:05:35.032Z,22.99
2018-04-12T09:06:34.979Z,22.99
2018-04-12T09:07:35.083Z,22.99
2018-04-12T09:08:34.984Z,22.99
2018-04-12T09:09:35.062Z,22.99
2018-04-12T09:10:35.026Z,22.99
2018-04-12T09:11:35.025Z,22.99
2018-04-12T09:12:35.042Z,22.99
2018-04-12T09:13:35.044Z,22.99
2018-04-12T09:14:35.074Z,21.20
2018-04-12T09:15:35.075Z,21.20
2018-04-12T09:16:35.072Z,21.20
2018-04-12T09:17:35.006Z,21.20
2018-04-12T09:18:35.077Z,21.20
2018-04-12T09:19:35.075Z,21.20
2018-04-12T09:20:35.079Z,21.20
2018-04-12T09:21:35.012Z,21.20
2018-04-12T09:22:35.075Z,21.20
2018-04-12T09:23:35.010Z,21.20
2018-04-12T09:24:34.994Z,17.99
2018-04-12T09:25:34.981Z,17.99
2018-04-12T09:26:35.075Z,17.99
2018-04-12T09:27:34.977Z,17.99
2018-04-12T09:28:35.083Z,17.99
2018-04-12T09:29:35.118Z,17.99
2018-04-12T09:30:35.101Z,17.99
2018-04-12T09:31:35.104Z,17.99
2018-04-12T09:32:35.006Z,17.99
2018-04-12T09:33:35.004Z,17.99
2018-04-12T09:34:35.085Z,15.70
2018-04-12T09:35:35.073Z,15.70
2018-04-12T09:36:35.018Z,15.70
2018-04-12T09:37:35.087Z,15.70
2018-04-12T09:38:35.094Z,15.70
2018-04-12T09:39:35.017Z,15.70
2018-04-12T09:40:35.124Z,15.70
2018-04-12T09:41:35.088Z,15.70
2018-04-12T09:42:35.046Z,15.70
2018-04-12T09:43:35.095Z,15.70
2018-04-12T09:44:35.000Z,23.60
2018-04-12T09:45:35.033Z,23.60
2018-04-12T09:46:35.005Z,23.60
2018-04-12T09:47:35.051Z,23.60
2018-04-12T09:48:35.083Z,23.60
2018-04-12T09:49:35.083Z,23.60
2018-04-12T09:50:35.001Z,23.60
2018-04-12T09:51:35.057Z,23.60
2018-04-12T09:52:35.015Z,23.60
2018-04-12T09:53:35.012Z,23.60
2018-04-12T09:54:34.994Z,17.00
2018-04-12T09:55:35.044Z,17.00
2018-04-12T09:56:35.014Z,17.00
2018-04-12T09:57:35.013Z,17.00
2018-04-12T09:58:35.044Z,17.00
2018-04-12T09:59:35.005Z,17.00
2018-04-12T10:00:35.021Z,17.00
2018-04-12T10:01:35.048Z,17.00
2018-04-12T10:02:35.047Z,17.00
2018-04-12T10:03:35.004Z,17.00
2018-04-12T10:04:35.030Z,19.20
2018-04-12T10:05:35.063Z,19.20
2018-04-12T10:06:35.102Z,19.20
2018-04-12T10:07:35.108Z,19.20
2018-04-12T10:08:35.033Z,19.20
2018-04-12T10:09:35.107Z,19.20
2018-04-12T10:10:35.127Z,19.20
2018-04-12T10:11:35.035Z,19.20
2018-04-12T10:12:35.105Z,19.20
2018-04-12T10:13:35.037Z,19.20
2018-04-12T10:14:35.022Z,23.20
2018-04-12T10:15:35.027Z,23.20
2018-04-12T10:16:35.203Z,23.20
2018-04-12T10:17:35.085Z,23.20
2018-04-12T10:18:35.089Z,23.20
2018-04-12T10:19:35.036Z,23.20
2018-04-12T10:20:35.185Z,23.20
2018-04-12T10:21:35.040Z,23.20
2018-04-12T10:22:35.071Z,23.20
2018-04-12T10:23:35.030Z,23.20
2018-04-12T10:24:35.082Z,18.30
2018-04-12T10:25:35.153Z,18.30
2018-04-12T10:26:35.093Z,18.30
2018-04-12T10:27:35.150Z,18.30
2018-04-12T10:28:35.114Z,18.30
2018-04-12T10:29:35.086Z,18.30
2018-04-12T10:30:35.085Z,18.30
2018-04-12T10:31:35.138Z,18.30
2018-04-12T10:32:35.082Z,18.30
2018-04-12T10:33:35.115Z,18.30
2018-04-12T10:34:35.116Z,20.40
2018-04-12T10:35:35.087Z,20.40
2018-04-12T10:36:35.090Z,20.40
2018-04-12T10:37:35.145Z,20.40
2018-04-12T10:38:35.143Z,20.40
2018-04-12T10:39:35.145Z,20.40
2018-04-12T10:40:35.162Z,20.40
2018-04-12T10:41:35.177Z,20.40
2018-04-12T10:42:35.104Z,20.40
2018-04-12T10:43:35.124Z,20.40
2018-04-12T10:44:35.082Z,24.50
2018-04-12T10:45:35.126Z,24.50
2018-04-12T10:46:35.083Z,24.50
2018-04-12T10:47:35.157Z,24.50
2018-04-12T10:48:35.086Z,24.50
2018-04-12T10:49:35.048Z,24.50
2018-04-12T10:50:35.129Z,24.50
2018-04-12T10:51:35.104Z,24.50
2018-04-12T10:52:35.128Z,24.50
2018-04-12T10:53:35.037Z,24.50
2018-04-12T10:54:35.129Z,20.20
2018-04-12T10:55:35.129Z,20.20
2018-04-12T10:56:35.156Z,20.20
2018-04-12T10:57:35.116Z,20.20
2018-04-12T10:58:35.158Z,20.20
2018-04-12T10:59:35.093Z,20.20
2018-04-12T11:00:35.133Z,20.20
2018-04-12T11:01:35.153Z,20.20
2018-04-12T11:02:35.061Z,20.20
2018-04-12T11:03:35.041Z,20.20
2018-04-12T11:04:35.043Z,20.80
2018-04-12T11:05:35.069Z,20.80
2018-04-12T11:06:35.014Z,20.80
2018-04-12T11:07:35.133Z,20.80
2018-04-12T11:08:35.133Z,20.80
2018-04-12T11:09:35.079Z,20.80
2018-04-12T11:10:35.056Z,20.80
2018-04-12T11:11:35.061Z,20.80
2018-04-12T11:12:35.059Z,20.80
2018-04-12T11:13:35.102Z,20.80
2018-04-12T11:14:35.059Z,21.60
2018-04-12T11:15:35.204Z,21.60
2018-04-12T11:16:35.149Z,21.60
2018-04-12T11:17:35.133Z,21.60
2018-04-12T11:18:35.177Z,21.60
2018-04-12T11:19:35.154Z,21.60
2018-04-12T11:20:35.220Z,21.60
2018-04-12T11:21:35.122Z,21.60
2018-04-12T11:22:35.177Z,21.60
2018-04-12T11:23:35.153Z,21.60
2018-04-12T11:24:35.188Z,19.40
2018-04-12T11:25:35.115Z,19.40
2018-04-12T11:26:35.181Z,19.40
2018-04-12T11:27:35.160Z,19.40
2018-04-12T11:28:35.159Z,19.40
2018-04-12T11:29:35.118Z,19.40
2018-04-12T11:30:35.097Z,19.40
2018-04-12T11:31:35.172Z,19.40
2018-04-12T11:32:35.183Z,19.40
2018-04-12T11:33:35.152Z,19.40
2018-04-12T11:34:35.158Z,21.00
2018-04-12T11:35:35.085Z,21.00
2018-04-12T11:36:35.256Z,21.00
2018-04-12T11:37:35.159Z,21.00
2018-04-12T11:38:35.163Z,21.00
2018-04-12T11:39:35.090Z,21.00
2018-04-12T11:40:35.127Z,21.00
2018-04-12T11:41:35.095Z,21.00
2018-04-12T11:42:35.096Z,21.00
2018-04-12T11:43:35.175Z,21.00
2018-04-12T11:44:35.132Z,23.30
2018-04-12T11:45:35.191Z,23.30
2018-04-12T11:46:35.155Z,23.30
2018-04-12T11:47:35.173Z,23.30
2018-04-12T11:48:35.071Z,23.30
2018-04-12T11:49:35.231Z,23.30
2018-04-12T11:50:35.205Z,23.30
2018-04-12T11:51:35.129Z,23.30
2018-04-12T11:52:35.165Z,23.30
2018-04-12T11:53:35.167Z,23.30
2018-04-12T11:54:35.074Z,23.50
2018-04-12T11:55:35.250Z,23.50
2018-04-12T11:56:35.182Z,23.50
2018-04-12T11:57:35.129Z,23.50
2018-04-12T11:58:35.176Z,23.50
2018-04-12T11:59:35.176Z,23.50
2018-04-12T12:00:35.172Z,23.50
2018-04-12T12:01:35.180Z,23.50
2018-04-12T12:02:35.093Z,23.50
2018-04-12T12:03:35.195Z,23.50
2018-04-12T12:04:35.229Z,24.90
2018-04-12T12:05:35.111Z,24.90
2018-04-12T12:06:35.177Z,24.90
2018-04-12T12:07:35.182Z,24.90
2018-04-12T12:08:35.151Z,24.90
2018-04-12T12:09:35.181Z,24.90
2018-04-12T12:10:35.179Z,24.90
2018-04-12T12:11:35.215Z,24.90
2018-04-12T12:12:35.179Z,24.90
2018-04-12T12:13:35.241Z,24.90
2018-04-12T12:14:35.179Z,26.60
2018-04-12T12:15:35.242Z,26.60
2018-04-12T12:16:35.104Z,26.60
2018-04-12T12:17:35.207Z,26.60
2018-04-12T12:18:35.181Z,26.60
2018-04-12T12:19:35.122Z,26.60
2018-04-12T12:20:35.159Z,26.60
2018-04-12T12:21:35.212Z,26.60
2018-04-12T12:22:35.207Z,26.60
2018-04-12T12:23:35.246Z,26.60
2018-04-12T12:24:35.112Z,27.70
2018-04-12T12:25:35.087Z,27.70
2018-04-12T12:26:35.092Z,27.70
2018-04-12T12:27:35.161Z,27.70
2018-04-12T12:28:35.166Z,27.70
2018-04-12T12:29:35.128Z,27.70
2018-04-12T12:30:35.118Z,27.70
2018-04-12T12:31:35.158Z,27.70
2018-04-12T12:32:35.298Z,27.70
2018-04-12T12:33:35.199Z,27.70
2018-04-12T12:34:35.199Z,27.70
2018-04-12T12:35:35.204Z,28.20
2018-04-12T12:36:35.160Z,28.20
2018-04-12T12:37:35.105Z,28.20
2018-04-12T12:38:35.162Z,28.20
2018-04-12T12:39:35.176Z,28.20
2018-04-12T12:40:35.235Z,28.20
2018-04-12T12:41:35.206Z,28.20
2018-04-12T12:42:35.223Z,28.20
2018-04-12T12:43:35.199Z,28.20
2018-04-12T12:44:35.175Z,28.20
2018-04-12T12:45:35.201Z,22.00
2018-04-12T12:46:35.191Z,22.00
2018-04-12T12:47:35.119Z,22.00
2018-04-12T12:48:35.196Z,22.00
2018-04-12T12:49:35.188Z,22.00
2018-04-12T12:50:35.194Z,22.00
2018-04-12T12:51:35.105Z,22.00
2018-04-12T12:52:35.080Z,22.00